createdAt,value
2018-08-18T00:00:34.965Z,101690.86
2018-08-18T00:03:03.841Z,101685.48
2018-08-18T00:05:32.731Z,101685.84
2018-08-18T00:08:01.628Z,101687.75
2018-08-18T00:10:30.559Z,101697.97
2018-08-18T00:12:59.474Z,101694.64
2018-08-18T00:15:28.325Z,101694.08
2018-08-18T00:17:57.189Z,101691.30
2018-08-18T00:20:26.157Z,101695.28
2018-08-18T00:22:55.030Z,101693.16
2018-08-18T00:25:24.004Z,101701.14
2018-08-18T00:27:53.052Z,101693.60
2018-08-18T00:30:28.768Z,101689.22
2018-08-18T00:32:57.624Z,101697.42
2018-08-18T00:35:26.570Z,101690.27
2018-08-18T00:37:55.415Z,101691.17
2018-08-18T00:40:24.268Z,101687.66
2018-08-18T00:42:53.128Z,101688.19
2018-08-18T00:45:22.000Z,101685.27
2018-08-18T00:47:51.503Z,101680.72
2018-08-18T00:50:40.747Z,101684.25
2018-08-18T00:53:10.689Z,101685.30
2018-08-18T00:55:39.525Z,101676.23
2018-08-18T00:58:32.470Z,101676.23
2018-08-18T01:01:05.089Z,101683.55
2018-08-18T01:03:55.721Z,101685.14
2018-08-18T01:06:29.020Z,101681.36
2018-08-18T01:08:59.142Z,101683.05
2018-08-18T01:11:28.322Z,101689.12
2018-08-18T01:13:58.071Z,101684.57
2018-08-18T01:16:26.882Z,101688.34
2018-08-18T01:18:55.775Z,101697.27
2018-08-18T01:21:25.419Z,101693.58
2018-08-18T01:23:54.420Z,101693.02
2018-08-18T01:26:23.263Z,101700.70
2018-08-18T01:28:52.128Z,101694.45
2018-08-18T01:31:22.747Z,101702.30
2018-08-18T01:33:51.606Z,101704.91
2018-08-18T01:36:20.473Z,101705.41
2018-08-18T01:38:49.311Z,101713.50
2018-08-18T01:41:25.374Z,101710.77
2018-08-18T01:44:29.129Z,101708.44
2018-08-18T01:46:58.027Z,101710.15
2018-08-18T01:49:30.745Z,101708.86
2018-08-18T01:52:01.389Z,101704.70
2018-08-18T01:54:30.445Z,101708.66
2018-08-18T01:57:09.075Z,101710.15
2018-08-18T01:59:44.618Z,101705.46
2018-08-18T02:02:24.984Z,101710.30
2018-08-18T02:04:54.279Z,101705.96
2018-08-18T02:07:25.524Z,101699.89
2018-08-18T02:09:54.855Z,101702.01
2018-08-18T02:12:24.145Z,101699.39
2018-08-18T02:14:53.337Z,101700.33
2018-08-18T02:17:33.211Z,101694.89
2018-08-18T02:20:02.220Z,101697.59
2018-08-18T02:22:31.888Z,101697.36
2018-08-18T02:25:00.765Z,101694.24
2018-08-18T02:27:29.622Z,101693.95
2018-08-18T02:30:12.423Z,101691.86
2018-08-18T02:32:41.347Z,101695.26
2018-08-18T02:35:10.218Z,101694.58
2018-08-18T02:37:39.078Z,101694.22
2018-08-18T02:40:12.834Z,101693.09
2018-08-18T02:42:41.597Z,101688.28
2018-08-18T02:45:11.269Z,101692.48
2018-08-18T02:47:40.163Z,101694.34
2018-08-18T02:50:10.386Z,101696.20
2018-08-18T02:52:39.353Z,101690.39
2018-08-18T02:55:09.912Z,101687.05
2018-08-18T02:57:47.772Z,101684.06
2018-08-18T03:00:37.450Z,101693.22
2018-08-18T03:03:06.337Z,101683.25
2018-08-18T03:05:35.210Z,101687.17
2018-08-18T03:08:04.085Z,101688.53
2018-08-18T03:10:33.374Z,101688.14
2018-08-18T03:13:02.230Z,101684.62
2018-08-18T03:15:53.714Z,101681.27
2018-08-18T03:18:44.966Z,101680.83
2018-08-18T03:21:13.839Z,101677.36
2018-08-18T03:24:11.247Z,101675.84
2018-08-18T03:26:47.358Z,101679.66
2018-08-18T03:29:16.812Z,101679.17
2018-08-18T03:31:46.195Z,101679.16
2018-08-18T03:34:15.365Z,101672.06
2018-08-18T03:36:46.058Z,101678.35
2018-08-18T03:39:34.046Z,101679.91
2018-08-18T03:42:04.052Z,101680.16
2018-08-18T03:44:35.287Z,101683.45
2018-08-18T03:47:04.160Z,101681.84
2018-08-18T03:49:33.052Z,101686.16
2018-08-18T03:52:01.969Z,101686.53
2018-08-18T03:54:30.843Z,101688.33
2018-08-18T03:56:59.738Z,101689.34
2018-08-18T03:59:28.632Z,101694.78
2018-08-18T04:02:01.040Z,101696.72
2018-08-18T04:04:38.603Z,101694.47
2018-08-18T04:07:08.951Z,101693.86
2018-08-18T04:09:38.857Z,101695.59
2018-08-18T04:12:11.153Z,101694.73
2018-08-18T04:14:41.201Z,101688.02
2018-08-18T04:17:31.138Z,101692.31
2018-08-18T04:20:00.019Z,101696.55
2018-08-18T04:22:28.901Z,101691.55
2018-08-18T04:24:57.782Z,101698.66
2018-08-18T04:27:45.671Z,101694.54
2018-08-18T04:30:17.347Z,101702.52
2018-08-18T04:33:04.926Z,101702.25
2018-08-18T04:35:34.244Z,101699.31
2018-08-18T04:38:03.892Z,101700.48
2018-08-18T04:40:34.191Z,101693.12
2018-08-18T04:43:03.031Z,101691.69
2018-08-18T04:45:31.902Z,101686.61
2018-08-18T04:48:00.824Z,101698.02
2018-08-18T04:50:29.728Z,101696.89
2018-08-18T04:52:58.599Z,101706.42
2018-08-18T04:55:27.446Z,101698.84
2018-08-18T04:57:56.288Z,101697.53
2018-08-18T05:00:27.661Z,101701.22
2018-08-18T05:03:00.280Z,101710.71
2018-08-18T05:05:30.456Z,101708.89
2018-08-18T05:08:00.246Z,101707.21
2018-08-18T05:10:29.368Z,101710.36
2018-08-18T05:12:58.304Z,101706.58
2018-08-18T05:15:27.200Z,101704.04
2018-08-18T05:17:56.090Z,101711.36
2018-08-18T05:20:26.264Z,101707.85
2018-08-18T05:22:56.809Z,101711.39
2018-08-18T05:25:41.249Z,101709.22
2018-08-18T05:28:10.179Z,101707.94
2018-08-18T05:30:39.046Z,101708.30
2018-08-18T05:33:08.291Z,101707.84
2018-08-18T05:35:37.156Z,101706.80
2018-08-18T05:38:06.001Z,101701.52
2018-08-18T05:40:35.134Z,101707.55
2018-08-18T05:43:04.292Z,101712.36
2018-08-18T05:45:33.936Z,101711.98
2018-08-18T05:48:02.836Z,101714.00
2018-08-18T05:50:31.738Z,101716.86
2018-08-18T05:53:27.426Z,101716.05
2018-08-18T05:55:56.531Z,101712.11
2018-08-18T05:58:25.419Z,101712.22
2018-08-18T06:01:22.679Z,101716.50
2018-08-18T06:03:58.699Z,101712.82
2018-08-18T06:06:27.537Z,101725.20
2018-08-18T06:08:56.380Z,101725.15
2018-08-18T06:11:25.243Z,101726.22
2018-08-18T06:13:54.117Z,101726.44
2018-08-18T06:16:23.007Z,101731.88
2018-08-18T06:18:51.888Z,101736.00
2018-08-18T06:21:20.761Z,101736.90
2018-08-18T06:23:49.629Z,101732.67
2018-08-18T06:26:18.529Z,101729.42
2018-08-18T06:28:47.410Z,101728.94
2018-08-18T06:31:16.277Z,101729.39
2018-08-18T06:33:45.104Z,101732.19
2018-08-18T06:36:13.984Z,101736.85
2018-08-18T06:38:42.821Z,101734.69
2018-08-18T06:41:11.822Z,101735.77
2018-08-18T06:43:40.502Z,101730.20
2018-08-18T06:46:09.353Z,101734.77
2018-08-18T06:48:38.841Z,101736.87
2018-08-18T06:51:07.909Z,101734.65
2018-08-18T06:53:44.095Z,101740.89
2018-08-18T06:56:13.035Z,101741.53
2018-08-18T06:58:41.915Z,101735.05
2018-08-18T07:01:11.182Z,101729.08
2018-08-18T07:03:47.461Z,101735.37
2018-08-18T07:06:17.452Z,101723.41
2018-08-18T07:08:55.750Z,101723.42
2018-08-18T07:11:24.598Z,101729.94
2018-08-18T07:13:53.462Z,101722.13
2018-08-18T07:16:22.353Z,101728.31
2018-08-18T07:18:51.187Z,101728.41
2018-08-18T07:21:20.028Z,101720.47
2018-08-18T07:23:48.894Z,101721.66
2018-08-18T07:26:17.722Z,101726.30
2018-08-18T07:28:46.725Z,101732.48
2018-08-18T07:31:15.409Z,101726.78
2018-08-18T07:33:44.266Z,101736.37
2018-08-18T07:36:13.183Z,101745.12
2018-08-18T07:38:42.059Z,101734.23
2018-08-18T07:41:10.876Z,101737.67
2018-08-18T07:43:39.729Z,101736.91
2018-08-18T07:46:09.042Z,101737.25
2018-08-18T07:48:37.906Z,101738.36
2018-08-18T07:51:06.752Z,101737.76
2018-08-18T07:53:35.642Z,101741.64
2018-08-18T07:56:04.437Z,101745.02
2018-08-18T07:58:33.276Z,101738.58
2018-08-18T08:01:02.154Z,101732.91
2018-08-18T08:03:30.990Z,101741.39
2018-08-18T08:05:59.847Z,101736.09
2018-08-18T08:08:49.951Z,101730.48
2018-08-18T08:11:18.792Z,101727.50
2018-08-18T08:13:47.659Z,101724.95
2018-08-18T08:16:16.532Z,101736.03
2018-08-18T08:18:45.383Z,101736.14
2018-08-18T08:21:14.263Z,101739.00
2018-08-18T08:23:43.140Z,101738.35
2018-08-18T08:26:12.386Z,101740.42
2018-08-18T08:28:41.250Z,101737.88
2018-08-18T08:31:10.081Z,101739.48
2018-08-18T08:33:39.567Z,101749.03
2018-08-18T08:36:17.666Z,101745.49
2018-08-18T08:38:58.797Z,101756.18
2018-08-18T08:41:29.485Z,101754.74
2018-08-18T08:43:58.371Z,101754.60
2018-08-18T08:46:27.237Z,101751.90
2018-08-18T08:48:58.545Z,101745.95
2018-08-18T08:51:27.493Z,101747.48
2018-08-18T08:53:57.536Z,101754.34
2018-08-18T08:56:41.260Z,101748.84
2018-08-18T08:59:10.098Z,101750.38
2018-08-18T09:01:38.932Z,101752.39
2018-08-18T09:04:07.792Z,101752.59
2018-08-18T09:06:42.466Z,101747.02
2018-08-18T09:09:11.333Z,101757.02
2018-08-18T09:11:40.232Z,101762.01
2018-08-18T09:14:09.092Z,101757.06
2018-08-18T09:16:37.952Z,101762.19
2018-08-18T09:19:06.803Z,101754.78
2018-08-18T09:21:55.198Z,101765.07
2018-08-18T09:24:25.617Z,101754.72
2018-08-18T09:27:04.136Z,101772.54
2018-08-18T09:29:45.832Z,101764.16
2018-08-18T09:32:15.323Z,101764.34
2018-08-18T09:34:53.722Z,101750.25
2018-08-18T09:37:22.949Z,101762.97
2018-08-18T09:39:51.781Z,101753.92
2018-08-18T09:42:21.052Z,101744.33
2018-08-18T09:44:53.808Z,101745.19
2018-08-18T09:47:22.739Z,101747.59
2018-08-18T09:49:51.589Z,101738.28
2018-08-18T09:52:20.753Z,101739.38
2018-08-18T09:54:49.619Z,101748.55
2018-08-18T09:57:18.476Z,101753.41
2018-08-18T09:59:47.347Z,101740.06
2018-08-18T10:02:16.196Z,101742.64
2018-08-18T10:04:45.074Z,101733.22
2018-08-18T10:07:13.948Z,101733.78
2018-08-18T10:09:42.779Z,101737.12
2018-08-18T10:12:11.636Z,101730.03
2018-08-18T10:14:40.495Z,101734.55
2018-08-18T10:17:09.412Z,101743.40
2018-08-18T10:19:38.263Z,101722.88
2018-08-18T10:22:07.118Z,101728.72
2018-08-18T10:24:35.974Z,101737.52
2018-08-18T10:27:05.372Z,101739.64
2018-08-18T10:29:34.288Z,101728.69
2018-08-18T10:32:03.094Z,101736.65
2018-08-18T10:34:33.157Z,101740.72
2018-08-18T10:37:05.854Z,101734.64
2018-08-18T10:39:35.492Z,101736.40
2018-08-18T10:42:15.927Z,101741.35
2018-08-18T10:45:01.776Z,101740.56
2018-08-18T10:47:30.715Z,101737.52
2018-08-18T10:50:50.685Z,101738.16
2018-08-18T10:53:19.522Z,101737.24
2018-08-18T10:55:48.387Z,101738.43
2018-08-18T10:58:54.615Z,101737.00
2018-08-18T11:01:23.432Z,101739.27
2018-08-18T11:03:52.949Z,101737.20
2018-08-18T11:06:26.497Z,101739.88
2018-08-18T11:08:55.340Z,101749.33
2018-08-18T11:11:24.179Z,101733.07
2018-08-18T11:13:53.023Z,101736.69
2018-08-18T11:16:21.876Z,101734.56
2018-08-18T11:18:50.726Z,101742.31
2018-08-18T11:21:24.472Z,101740.50
2018-08-18T11:24:05.610Z,101733.02
2018-08-18T11:26:35.503Z,101735.81
2018-08-18T11:29:19.113Z,101743.29
2018-08-18T11:31:47.974Z,101737.36
2018-08-18T11:34:18.334Z,101736.19
2018-08-18T11:37:06.484Z,101743.58
2018-08-18T11:39:35.384Z,101743.58
2018-08-18T11:42:04.315Z,101741.33
2018-08-18T11:44:33.123Z,101749.22
2018-08-18T11:47:02.811Z,101742.81
2018-08-18T11:49:31.647Z,101741.66
2018-08-18T11:52:00.557Z,101734.92
2018-08-18T11:54:29.398Z,101733.39
2018-08-18T11:57:00.679Z,101730.16
2018-08-18T11:59:29.550Z,101728.63
2018-08-18T12:01:58.531Z,101726.23
2018-08-18T12:04:27.277Z,101723.98
2018-08-18T12:06:59.629Z,101721.99
2018-08-18T12:09:28.922Z,101724.87
2018-08-18T12:11:57.813Z,101727.09
2018-08-18T12:14:26.673Z,101733.52
2018-08-18T12:16:55.536Z,101735.70
2018-08-18T12:19:24.404Z,101734.77
2018-08-18T12:21:54.709Z,101729.99
2018-08-18T12:24:23.609Z,101735.71
2018-08-18T12:27:12.842Z,101732.98
2018-08-18T12:29:41.824Z,101729.02
2018-08-18T12:32:29.076Z,101723.23
2018-08-18T12:34:58.672Z,101722.39
2018-08-18T12:37:28.301Z,101729.02
2018-08-18T12:39:58.411Z,101709.64
2018-08-18T12:42:28.621Z,101723.02
2018-08-18T12:44:57.924Z,101715.39
2018-08-18T12:47:26.763Z,101717.67
2018-08-18T12:49:55.711Z,101723.00
2018-08-18T12:52:24.511Z,101721.08
2018-08-18T12:54:53.387Z,101716.51
2018-08-18T12:57:41.216Z,101708.61
2018-08-18T13:00:10.086Z,101713.25
2018-08-18T13:02:43.700Z,101710.11
2018-08-18T13:05:12.564Z,101711.84
2018-08-18T13:07:44.990Z,101710.16
2018-08-18T13:10:28.508Z,101703.63
2018-08-18T13:12:57.926Z,101706.86
2018-08-18T13:15:26.820Z,101703.55
2018-08-18T13:17:55.878Z,101702.17
2018-08-18T13:20:25.805Z,101714.33
2018-08-18T13:22:54.681Z,101713.80
2018-08-18T13:25:23.528Z,101706.88
2018-08-18T13:27:53.090Z,101711.45
2018-08-18T13:30:22.740Z,101699.52
2018-08-18T13:32:55.061Z,101704.31
2018-08-18T13:35:23.921Z,101707.93
2018-08-18T13:37:53.290Z,101707.07
2018-08-18T13:40:26.867Z,101698.98
2018-08-18T13:42:55.711Z,101695.09
2018-08-18T13:45:44.701Z,101699.83
2018-08-18T13:48:13.581Z,101700.58
2018-08-18T13:50:42.467Z,101695.77
2018-08-18T13:53:11.294Z,101695.37
2018-08-18T13:55:41.495Z,101695.56
2018-08-18T13:58:11.862Z,101699.13
2018-08-18T14:00:40.713Z,101701.09
2018-08-18T14:03:24.448Z,101694.31
2018-08-18T14:05:54.188Z,101702.62
2018-08-18T14:08:23.043Z,101708.36
2018-08-18T14:10:51.932Z,101703.03
2018-08-18T14:13:20.801Z,101708.59
2018-08-18T14:15:58.905Z,101701.91
2018-08-18T14:18:27.814Z,101705.91
2018-08-18T14:21:09.021Z,101700.73
2018-08-18T14:23:37.867Z,101703.89
2018-08-18T14:26:06.763Z,101702.48
2018-08-18T14:28:35.676Z,101699.41
2018-08-18T14:31:04.489Z,101703.16
2018-08-18T14:33:33.342Z,101701.25
2018-08-18T14:36:20.348Z,101705.28
2018-08-18T14:38:49.222Z,101703.23
2018-08-18T14:41:39.826Z,101711.16
2018-08-18T14:44:08.789Z,101703.59
2018-08-18T14:46:37.799Z,101703.84
2018-08-18T14:49:06.508Z,101718.61
2018-08-18T14:51:35.387Z,101713.26
2018-08-18T14:54:04.332Z,101708.25
2018-08-18T14:56:33.117Z,101709.83
2018-08-18T14:59:01.975Z,101709.78
2018-08-18T15:01:30.862Z,101709.50
2018-08-18T15:03:59.748Z,101712.63
2018-08-18T15:06:28.635Z,101712.27
2018-08-18T15:08:57.507Z,101708.26
2018-08-18T15:11:26.370Z,101706.50
2018-08-18T15:13:55.216Z,101703.91
2018-08-18T15:16:24.103Z,101703.78
2018-08-18T15:18:52.970Z,101709.44
2018-08-18T15:21:21.821Z,101703.45
2018-08-18T15:23:50.678Z,101700.81
2018-08-18T15:26:19.549Z,101709.11
2018-08-18T15:28:48.408Z,101699.00
2018-08-18T15:31:17.251Z,101698.91
2018-08-18T15:33:46.135Z,101695.83
2018-08-18T15:36:33.590Z,101695.24
2018-08-18T15:39:02.495Z,101697.87
2018-08-18T15:41:31.344Z,101699.06
2018-08-18T15:44:00.188Z,101701.14
2018-08-18T15:46:29.027Z,101696.42
2018-08-18T15:48:57.906Z,101695.77
2018-08-18T15:51:26.747Z,101692.67
2018-08-18T15:53:56.749Z,101690.40
2018-08-18T15:56:26.570Z,101685.73
2018-08-18T15:58:56.309Z,101696.80
2018-08-18T16:01:29.160Z,101699.56
2018-08-18T16:03:59.430Z,101694.63
2018-08-18T16:06:28.316Z,101689.78
2018-08-18T16:08:57.211Z,101694.69
2018-08-18T16:11:26.115Z,101690.34
2018-08-18T16:13:55.036Z,101690.61
2018-08-18T16:16:23.820Z,101694.75
2018-08-18T16:19:14.567Z,101691.55
2018-08-18T16:21:43.449Z,101691.75
2018-08-18T16:24:40.377Z,101688.45
2018-08-18T16:27:09.222Z,101696.12
2018-08-18T16:29:38.577Z,101695.91
2018-08-18T16:32:24.803Z,101690.32
2018-08-18T16:35:12.583Z,101690.70
2018-08-18T16:37:43.488Z,101695.63
2018-08-18T16:40:12.391Z,101701.83
2018-08-18T16:42:41.264Z,101701.27
2018-08-18T16:45:10.106Z,101699.99
2018-08-18T16:47:47.132Z,101696.66
2018-08-18T16:50:15.966Z,101692.05
2018-08-18T16:52:44.868Z,101694.12
2018-08-18T16:55:13.715Z,101687.93
2018-08-18T16:57:42.580Z,101687.93
2018-08-18T17:00:11.458Z,101687.91
2018-08-18T17:02:40.320Z,101689.77
2018-08-18T17:05:09.654Z,101689.96
2018-08-18T17:07:42.340Z,101692.63
2018-08-18T17:10:11.219Z,101695.30
2018-08-18T17:12:40.082Z,101692.34
2018-08-18T17:15:08.957Z,101688.44
2018-08-18T17:17:37.828Z,101686.59
2018-08-18T17:20:07.985Z,101695.35
2018-08-18T17:22:36.865Z,101693.53
2018-08-18T17:25:07.380Z,101701.73
2018-08-18T17:27:36.272Z,101705.69
2018-08-18T17:30:05.604Z,101700.44
2018-08-18T17:32:34.428Z,101701.88
2018-08-18T17:35:03.305Z,101708.50
2018-08-18T17:37:32.165Z,101712.88
2018-08-18T17:40:00.984Z,101710.19
2018-08-18T17:42:29.890Z,101711.18
2018-08-18T17:44:58.797Z,101707.12
2018-08-18T17:47:27.653Z,101721.56
2018-08-18T17:49:57.571Z,101715.41
2018-08-18T17:52:27.413Z,101714.70
2018-08-18T17:55:17.945Z,101718.93
2018-08-18T17:57:46.838Z,101717.87
2018-08-18T18:00:19.870Z,101719.22
2018-08-18T18:02:58.819Z,101723.03
2018-08-18T18:05:32.198Z,101716.25
2018-08-18T18:08:05.526Z,101716.55
2018-08-18T18:10:35.552Z,101716.55
2018-08-18T18:13:28.352Z,101712.94
2018-08-18T18:15:57.214Z,101712.66
2018-08-18T18:18:32.465Z,101709.55
2018-08-18T18:21:01.318Z,101709.34
2018-08-18T18:23:30.152Z,101711.88
2018-08-18T18:25:59.005Z,101709.02
2018-08-18T18:28:27.884Z,101706.62
2018-08-18T18:30:56.741Z,101709.98
2018-08-18T18:33:25.657Z,101709.06
2018-08-18T18:35:54.455Z,101713.77
2018-08-18T18:38:23.338Z,101706.23
2018-08-18T18:40:52.226Z,101713.19
2018-08-18T18:43:21.083Z,101713.37
2018-08-18T18:45:50.050Z,101710.71
2018-08-18T18:48:18.833Z,101713.56
2018-08-18T18:50:49.096Z,101705.55
2018-08-18T18:53:17.963Z,101716.44
2018-08-18T18:55:55.764Z,101713.09
2018-08-18T18:58:24.667Z,101714.52
2018-08-18T19:01:04.460Z,101714.11
2018-08-18T19:03:33.286Z,101721.05
2018-08-18T19:06:02.167Z,101713.88
2018-08-18T19:08:31.013Z,101718.39
2018-08-18T19:11:03.093Z,101721.83
2018-08-18T19:13:32.000Z,101720.33
2018-08-18T19:16:00.901Z,101720.03
2018-08-18T19:18:29.748Z,101720.11
2018-08-18T19:20:58.617Z,101727.70
2018-08-18T19:23:28.042Z,101725.69
2018-08-18T19:25:56.910Z,101725.33
2018-08-18T19:28:25.806Z,101718.71
2018-08-18T19:30:54.616Z,101720.89
2018-08-18T19:33:23.546Z,101729.70
2018-08-18T19:35:53.293Z,101740.45
2018-08-18T19:38:23.248Z,101733.27
2018-08-18T19:40:53.009Z,101737.80
2018-08-18T19:43:23.171Z,101743.67
2018-08-18T19:45:52.540Z,101743.74
2018-08-18T19:48:25.854Z,101738.13
2018-08-18T19:51:04.444Z,101740.61
2018-08-18T19:53:34.706Z,101738.78
2018-08-18T19:56:04.108Z,101736.92
2018-08-18T19:58:32.967Z,101741.97
2018-08-18T20:01:01.816Z,101739.78
2018-08-18T20:03:30.707Z,101740.67
2018-08-18T20:06:00.528Z,101748.63
2018-08-18T20:08:29.440Z,101752.61
2018-08-18T20:11:01.646Z,101743.88
2018-08-18T20:13:31.828Z,101746.28
2018-08-18T20:16:04.126Z,101746.46
2018-08-18T20:18:33.491Z,101748.53
2018-08-18T20:21:02.344Z,101736.88
2018-08-18T20:23:31.259Z,101747.49
2018-08-18T20:26:01.357Z,101748.18
2018-08-18T20:28:30.194Z,101748.00
2018-08-18T20:30:59.051Z,101747.14
2018-08-18T20:33:27.939Z,101750.41
2018-08-18T20:35:56.821Z,101752.43
2018-08-18T20:38:30.994Z,101748.64
2018-08-18T20:40:59.856Z,101745.54
2018-08-18T20:43:28.737Z,101748.98
2018-08-18T20:45:57.645Z,101746.39
2018-08-18T20:48:26.523Z,101750.01
2018-08-18T20:50:55.361Z,101745.87
2018-08-18T20:53:24.209Z,101742.86
2018-08-18T20:55:58.062Z,101749.54
2018-08-18T20:58:27.475Z,101746.09
2018-08-18T21:00:56.345Z,101746.45
2018-08-18T21:03:50.470Z,101742.84
2018-08-18T21:06:19.867Z,101749.26
2018-08-18T21:08:48.817Z,101746.75
2018-08-18T21:11:17.933Z,101748.89
2018-08-18T21:13:50.801Z,101745.84
2018-08-18T21:16:20.493Z,101749.52
2018-08-18T21:18:49.332Z,101756.08
2018-08-18T21:21:30.316Z,101752.98
2018-08-18T21:23:59.119Z,101759.37
2018-08-18T21:26:28.050Z,101754.59
2018-08-18T21:28:57.776Z,101751.45
2018-08-18T21:31:38.698Z,101752.02
2018-08-18T21:34:08.037Z,101752.55
2018-08-18T21:36:36.991Z,101752.92
2018-08-18T21:39:08.192Z,101757.92
2018-08-18T21:41:38.248Z,101750.70
2018-08-18T21:44:08.713Z,101747.94
2018-08-18T21:46:37.930Z,101751.21
2018-08-18T21:49:06.841Z,101752.59
2018-08-18T21:51:35.637Z,101753.45
2018-08-18T21:54:04.535Z,101755.17
2018-08-18T21:56:40.758Z,101761.89
2018-08-18T21:59:10.909Z,101763.95
2018-08-18T22:01:39.773Z,101762.06
2018-08-18T22:04:09.216Z,101762.06
2018-08-18T22:06:38.074Z,101768.59
2018-08-18T22:09:24.461Z,101769.97
2018-08-18T22:11:53.326Z,101769.50
2018-08-18T22:14:22.231Z,101768.95
2018-08-18T22:17:00.080Z,101767.22
2018-08-18T22:19:29.635Z,101774.96
2018-08-18T22:21:58.493Z,101777.71
2018-08-18T22:24:27.357Z,101781.49
2018-08-18T22:26:56.211Z,101781.16
2018-08-18T22:29:26.030Z,101776.84
2018-08-18T22:31:54.889Z,101776.46
2018-08-18T22:34:23.750Z,101778.91
2018-08-18T22:36:56.013Z,101783.73
2018-08-18T22:39:24.908Z,101784.25
2018-08-18T22:41:53.774Z,101779.44
2018-08-18T22:44:22.665Z,101767.39
2018-08-18T22:46:51.539Z,101776.16
2018-08-18T22:49:20.439Z,101777.02
2018-08-18T22:51:49.295Z,101771.35
2018-08-18T22:54:18.146Z,101769.11
2018-08-18T22:57:00.739Z,101775.82
2018-08-18T22:59:30.204Z,101771.35
2018-08-18T23:01:59.048Z,101769.97
2018-08-18T23:04:35.879Z,101765.15
2018-08-18T23:07:05.506Z,101770.48
2018-08-18T23:09:34.436Z,101767.21
2018-08-18T23:12:05.045Z,101762.05
2018-08-18T23:14:43.341Z,101764.25
2018-08-18T23:17:12.228Z,101766.83
2018-08-18T23:19:41.114Z,101760.33
2018-08-18T23:22:52.723Z,101760.84
2018-08-18T23:25:22.455Z,101762.58
2018-08-18T23:27:51.403Z,101756.56
2018-08-18T23:30:23.921Z,101760.04
2018-08-18T23:32:52.774Z,101763.83
2018-08-18T23:35:24.339Z,101759.88
2018-08-18T23:37:53.376Z,101765.05
2018-08-18T23:40:22.225Z,101773.16
2018-08-18T23:42:51.091Z,101772.30
2018-08-18T23:45:19.972Z,101764.53
2018-08-18T23:48:09.399Z,101761.64
2018-08-18T23:50:39.187Z,101762.16
2018-08-18T23:53:12.205Z,101761.30
2018-08-18T23:56:00.820Z,101764.70
2018-08-18T23:58:30.456Z,101764.38
